Time;durP1;ratioP1;P1;durP2;ratioP2;P2;SDS_P1;SDS_P2;PMS_P1;PMS_P2;Temp;Humidity;BMP_temperature;BMP_pressure;BME280_temperature;BME280_humidity;BME280_pressure;Samples;Min_cycle;Max_cycle;Signal;HPM_P1;HPM_P2
2022/03/18 00:00:55;;;;;;;36.03;26.73;;;;;;;;;;5069440;28;20028;-72
2022/03/18 00:03:21;;;;;;;38.13;27.75;;;;;;;;;;5067853;28;20043;-72
2022/03/18 00:05:48;;;;;;;37.10;23.60;;;;;;;;;;5069042;28;20039;-71
2022/03/18 00:08:15;;;;;;;41.03;23.85;;;;;;;;;;5062732;28;20028;-71
2022/03/18 00:10:41;;;;;;;40.45;23.98;;;;;;;;;;5068124;28;20604;-71
2022/03/18 00:13:07;;;;;;;34.15;22.45;;;;;;;;;;5065850;28;20028;-72
2022/03/18 00:15:33;;;;;;;37.35;23.25;;;;;;;;;;5051814;28;20502;-72
2022/03/18 00:17:59;;;;;;;41.30;26.50;;;;;;;;;;5068382;28;20036;-71
2022/03/18 00:20:26;;;;;;;42.33;29.00;;;;;;;;;;5068083;28;20032;-72
2022/03/18 00:22:52;;;;;;;46.55;31.30;;;;;;;;;;5067819;28;20048;-71
2022/03/18 00:25:18;;;;;;;42.88;29.90;;;;;;;;;;5067084;28;20036;-71
2022/03/18 00:27:46;;;;;;;46.08;32.85;;;;;;;;;;5067699;28;20032;-72
2022/03/18 00:30:12;;;;;;;40.65;28.90;;;;;;;;;;5067047;28;20079;-71
2022/03/18 00:32:39;;;;;;;40.45;29.63;;;;;;;;;;5067406;28;20417;-72
2022/03/18 00:35:06;;;;;;;45.08;31.45;;;;;;;;;;5066812;28;20384;-72
2022/03/18 00:37:32;;;;;;;40.53;28.25;;;;;;;;;;5067897;28;20407;-72
2022/03/18 00:39:58;;;;;;;42.42;29.80;;;;;;;;;;5058672;28;20055;-71
2022/03/18 00:42:24;;;;;;;41.83;29.08;;;;;;;;;;5067372;28;20028;-71
2022/03/18 00:44:50;;;;;;;47.03;32.00;;;;;;;;;;5066019;28;20066;-72
2022/03/18 00:52:46;;;;;;;49.53;33.25;;;;;;;;;;5053653;28;20039;-72
2022/03/18 00:55:12;;;;;;;46.63;32.28;;;;;;;;;;5061693;28;20043;-71
2022/03/18 00:57:38;;;;;;;44.97;32.03;;;;;;;;;;5054543;28;20029;-72
2022/03/18 01:00:08;;;;;;;44.63;32.80;;;;;;;;;;5066992;28;20112;-71
2022/03/18 01:02:34;;;;;;;46.10;28.85;;;;;;;;;;5066297;28;20139;-72
2022/03/18 01:05:00;;;;;;;50.92;32.40;;;;;;;;;;5053426;28;20060;-72
2022/03/18 01:07:26;;;;;;;40.90;29.02;;;;;;;;;;5067065;28;20036;-71
2022/03/18 01:09:52;;;;;;;46.38;31.20;;;;;;;;;;5066435;28;20065;-72
2022/03/18 01:12:18;;;;;;;47.42;31.92;;;;;;;;;;5066492;28;20451;-72
2022/03/18 01:14:44;;;;;;;40.75;28.92;;;;;;;;;;5066364;28;20115;-72
2022/03/18 01:17:10;;;;;;;42.35;31.33;;;;;;;;;;5063245;28;20099;-72
2022/03/18 01:19:36;;;;;;;42.78;31.52;;;;;;;;;;5066937;28;20037;-72
2022/03/18 01:22:02;;;;;;;45.73;32.37;;;;;;;;;;5023465;28;1148849;-71
2022/03/18 01:24:28;;;;;;;49.13;33.92;;;;;;;;;;5067956;28;20035;-71
2022/03/18 01:26:54;;;;;;;48.00;34.95;;;;;;;;;;5071026;28;20109;-72
2022/03/18 01:29:20;;;;;;;45.50;33.40;;;;;;;;;;5070102;28;20029;-72
2022/03/18 01:31:48;;;;;;;53.83;34.20;;;;;;;;;;5068544;28;20028;-71
2022/03/18 01:34:14;;;;;;;46.35;32.38;;;;;;;;;;5068026;28;20083;-72
2022/03/18 01:36:40;;;;;;;46.92;35.50;;;;;;;;;;5064773;28;20044;-71
2022/03/18 01:39:06;;;;;;;56.17;36.40;;;;;;;;;;5070989;28;20419;-71
2022/03/18 01:41:33;;;;;;;53.75;34.45;;;;;;;;;;5070736;28;20108;-72
2022/03/18 01:43:59;;;;;;;48.50;31.80;;;;;;;;;;5071223;28;20036;-72
2022/03/18 01:46:25;;;;;;;45.72;30.90;;;;;;;;;;5070254;28;20072;-71
2022/03/18 01:48:52;;;;;;;45.00;30.65;;;;;;;;;;5071590;28;20036;-72
2022/03/18 01:51:18;;;;;;;42.05;27.05;;;;;;;;;;5069668;28;21201;-72
2022/03/18 01:53:45;;;;;;;41.70;28.70;;;;;;;;;;5065434;28;20070;-72
2022/03/18 01:56:12;;;;;;;42.70;28.15;;;;;;;;;;5071029;28;20036;-71
2022/03/18 01:58:38;;;;;;;47.10;32.88;;;;;;;;;;5071015;28;20044;-71
2022/03/18 02:01:04;;;;;;;45.10;32.55;;;;;;;;;;5065173;28;20064;-71
2022/03/18 02:03:30;;;;;;;43.03;30.85;;;;;;;;;;5071464;28;20037;-71
2022/03/18 02:05:57;;;;;;;49.30;34.78;;;;;;;;;;5070304;28;20043;-71
2022/03/18 02:08:23;;;;;;;50.33;37.20;;;;;;;;;;5071657;28;20082;-71
2022/03/18 02:10:49;;;;;;;53.58;35.40;;;;;;;;;;5069959;28;20036;-71
2022/03/18 02:13:15;;;;;;;51.35;33.97;;;;;;;;;;5070778;28;20043;-72
2022/03/18 02:15:41;;;;;;;51.28;34.90;;;;;;;;;;5070772;28;20033;-71
2022/03/18 02:18:07;;;;;;;51.75;35.10;;;;;;;;;;5070231;28;20029;-71
2022/03/18 02:20:34;;;;;;;50.60;36.08;;;;;;;;;;5070646;28;20036;-72
2022/03/18 02:23:01;;;;;;;52.58;35.53;;;;;;;;;;5069994;28;20055;-71
2022/03/18 02:25:27;;;;;;;51.72;36.20;;;;;;;;;;5055435;28;20116;-71
2022/03/18 02:27:57;;;;;;;51.60;37.85;;;;;;;;;;5064169;28;20182;-71
2022/03/18 02:30:24;;;;;;;57.92;38.05;;;;;;;;;;5068558;28;20040;-71
2022/03/18 02:32:50;;;;;;;60.28;38.42;;;;;;;;;;5070872;28;20755;-72
2022/03/18 02:35:16;;;;;;;63.33;38.95;;;;;;;;;;5070546;28;20051;-71
2022/03/18 02:37:42;;;;;;;56.55;37.28;;;;;;;;;;5070002;28;20099;-72
2022/03/18 02:40:08;;;;;;;54.65;38.00;;;;;;;;;;5070381;28;20064;-71
2022/03/18 02:42:34;;;;;;;56.97;37.53;;;;;;;;;;5060886;28;20029;-72
2022/03/18 02:45:01;;;;;;;50.47;35.30;;;;;;;;;;5070972;28;20036;-71
2022/03/18 02:47:27;;;;;;;55.75;37.10;;;;;;;;;;5069957;28;20032;-71
2022/03/18 02:49:53;;;;;;;46.05;32.42;;;;;;;;;;5069498;28;20125;-72
2022/03/18 02:52:20;;;;;;;44.55;29.58;;;;;;;;;;5070096;28;20538;-71
2022/03/18 02:54:46;;;;;;;45.92;30.70;;;;;;;;;;5070163;28;20378;-71
2022/03/18 02:57:12;;;;;;;47.67;35.20;;;;;;;;;;5070075;28;20499;-72
2022/03/18 02:59:38;;;;;;;53.35;37.17;;;;;;;;;;5070114;28;20103;-71
2022/03/18 03:02:04;;;;;;;53.65;36.83;;;;;;;;;;5070057;28;20459;-72
2022/03/18 03:04:31;;;;;;;51.63;37.92;;;;;;;;;;5070014;28;20040;-71
2022/03/18 03:09:41;;;;;;;61.35;40.30;;;;;;;;;;5049859;28;20051;-72
2022/03/18 03:12:07;;;;;;;58.17;40.40;;;;;;;;;;5065628;28;20711;-72
2022/03/18 03:14:36;;;;;;;57.22;40.33;;;;;;;;;;5068659;28;20824;-71
2022/03/18 03:17:02;;;;;;;58.35;39.75;;;;;;;;;;5069954;28;20020;-72
2022/03/18 03:19:28;;;;;;;58.47;42.42;;;;;;;;;;5062587;28;20670;-71
2022/03/18 03:21:54;;;;;;;58.00;41.58;;;;;;;;;;5069634;28;20024;-71
2022/03/18 03:24:20;;;;;;;57.47;39.55;;;;;;;;;;5068187;28;20484;-71
2022/03/18 03:26:46;;;;;;;62.28;43.95;;;;;;;;;;5069862;28;20029;-72
2022/03/18 03:29:12;;;;;;;65.13;44.75;;;;;;;;;;5068297;28;20048;-72
2022/03/18 03:31:39;;;;;;;64.63;45.55;;;;;;;;;;5061156;28;20028;-71
2022/03/18 03:34:05;;;;;;;65.65;44.63;;;;;;;;;;5056384;28;20086;-71
2022/03/18 03:36:31;;;;;;;74.45;47.10;;;;;;;;;;5069373;28;20069;-72
2022/03/18 03:38:57;;;;;;;66.25;44.10;;;;;;;;;;5060301;28;20032;-72
2022/03/18 03:41:23;;;;;;;68.97;45.60;;;;;;;;;;5069364;28;20072;-72
2022/03/18 03:43:49;;;;;;;64.40;45.60;;;;;;;;;;5067029;28;20037;-72
2022/03/18 03:46:15;;;;;;;65.40;44.42;;;;;;;;;;5049300;28;20089;-71
2022/03/18 03:48:41;;;;;;;64.53;43.45;;;;;;;;;;5064036;28;20478;-72
2022/03/18 03:51:07;;;;;;;66.38;43.78;;;;;;;;;;5066438;28;20486;-72
2022/03/18 03:53:33;;;;;;;67.68;47.25;;;;;;;;;;5068857;28;20044;-71
2022/03/18 03:55:59;;;;;;;64.50;43.85;;;;;;;;;;5068253;28;20024;-72
2022/03/18 03:58:25;;;;;;;64.68;47.05;;;;;;;;;;5067772;28;20032;-71
2022/03/18 04:00:51;;;;;;;65.07;46.00;;;;;;;;;;5068304;28;20029;-71
2022/03/18 04:03:17;;;;;;;73.53;46.85;;;;;;;;;;5069444;28;20060;-71
2022/03/18 04:05:43;;;;;;;75.72;48.10;;;;;;;;;;5063453;28;20076;-71
2022/03/18 04:08:09;;;;;;;70.25;42.92;;;;;;;;;;5069378;28;20037;-71
2022/03/18 04:10:42;;;;;;;67.03;44.78;;;;;;;;;;5067862;28;20035;-71
2022/03/18 04:13:08;;;;;;;72.70;49.60;;;;;;;;;;5068720;28;20036;-71
2022/03/18 04:15:34;;;;;;;66.45;49.40;;;;;;;;;;5067899;28;20048;-71
2022/03/18 04:18:00;;;;;;;73.15;49.28;;;;;;;;;;5060417;28;20036;-72
2022/03/18 04:20:27;;;;;;;64.90;46.85;;;;;;;;;;5068422;28;20024;-71
2022/03/18 04:22:54;;;;;;;66.80;47.72;;;;;;;;;;5063379;28;20086;-71
2022/03/18 04:25:23;;;;;;;74.68;48.63;;;;;;;;;;5068508;28;20033;-72
2022/03/18 04:27:49;;;;;;;76.13;52.53;;;;;;;;;;5068034;28;20040;-72
2022/03/18 04:30:15;;;;;;;72.72;50.65;;;;;;;;;;5068751;28;20875;-72
2022/03/18 04:32:42;;;;;;;74.65;50.63;;;;;;;;;;5067788;28;20028;-72
2022/03/18 04:35:08;;;;;;;74.40;51.13;;;;;;;;;;5068787;28;20463;-72
2022/03/18 04:37:34;;;;;;;74.43;49.33;;;;;;;;;;5067799;28;20024;-72
2022/03/18 04:40:01;;;;;;;81.75;49.92;;;;;;;;;;5068612;28;20471;-71
2022/03/18 04:42:27;;;;;;;78.63;53.13;;;;;;;;;;5061969;28;20029;-72
2022/03/18 04:44:53;;;;;;;81.43;52.15;;;;;;;;;;5066916;28;20040;-71
2022/03/18 04:47:19;;;;;;;75.82;48.03;;;;;;;;;;5067453;28;20029;-72
2022/03/18 04:49:45;;;;;;;74.65;52.75;;;;;;;;;;5068396;28;20032;-72
2022/03/18 04:52:11;;;;;;;78.63;52.95;;;;;;;;;;5067602;28;20043;-71
2022/03/18 04:54:38;;;;;;;75.47;50.35;;;;;;;;;;5068113;28;20032;-71
2022/03/18 04:57:16;;;;;;;79.75;51.13;;;;;;;;;;5068023;28;20042;-71
2022/03/18 04:59:42;;;;;;;80.00;53.05;;;;;;;;;;5068337;28;20039;-71
2022/03/18 05:02:10;;;;;;;83.70;51.42;;;;;;;;;;5068346;28;20036;-72
2022/03/18 05:04:37;;;;;;;80.90;55.15;;;;;;;;;;5067764;28;20036;-71
2022/03/18 05:07:03;;;;;;;81.32;53.75;;;;;;;;;;5068127;28;20097;-71
2022/03/18 05:09:29;;;;;;;78.70;52.25;;;;;;;;;;5058718;28;20483;-71
2022/03/18 05:11:55;;;;;;;76.72;51.15;;;;;;;;;;5067144;28;20157;-71
2022/03/18 05:14:21;;;;;;;82.72;54.65;;;;;;;;;;5056103;28;20537;-71
2022/03/18 05:16:47;;;;;;;83.55;50.78;;;;;;;;;;5060595;28;20093;-71
2022/03/18 05:19:13;;;;;;;84.30;55.92;;;;;;;;;;5054240;28;20072;-72
2022/03/18 05:21:39;;;;;;;78.07;52.20;;;;;;;;;;5059295;28;20043;-71
2022/03/18 05:24:06;;;;;;;79.72;53.25;;;;;;;;;;5061291;28;20061;-71
2022/03/18 05:26:33;;;;;;;78.55;49.97;;;;;;;;;;5058666;28;20028;-72
2022/03/18 05:28:59;;;;;;;81.80;55.03;;;;;;;;;;5067092;28;20037;-71
2022/03/18 05:31:28;;;;;;;81.57;53.00;;;;;;;;;;5067913;28;20028;-72
2022/03/18 05:33:54;;;;;;;78.50;54.42;;;;;;;;;;5066430;28;20059;-71
2022/03/18 05:36:21;;;;;;;83.30;52.75;;;;;;;;;;5063138;28;20463;-73
2022/03/18 05:38:47;;;;;;;78.43;53.58;;;;;;;;;;5067627;28;20116;-73
2022/03/18 05:41:13;;;;;;;82.78;55.42;;;;;;;;;;5067559;28;20048;-72
2022/03/18 05:43:40;;;;;;;93.60;53.45;;;;;;;;;;5068024;28;20029;-73
2022/03/18 05:46:06;;;;;;;74.20;50.60;;;;;;;;;;5067036;28;20052;-73
2022/03/18 05:48:33;;;;;;;84.18;53.10;;;;;;;;;;5063676;28;20059;-73
2022/03/18 05:51:00;;;;;;;87.38;53.28;;;;;;;;;;5066977;28;20028;-73
2022/03/18 05:53:26;;;;;;;88.93;52.42;;;;;;;;;;5067803;28;20367;-73
2022/03/18 05:58:37;;;;;;;84.47;52.88;;;;;;;;;;5064572;28;20770;-73
2022/03/18 06:01:03;;;;;;;87.22;53.28;;;;;;;;;;5066623;28;20036;-73
2022/03/18 06:03:29;;;;;;;76.82;47.08;;;;;;;;;;5065212;28;21688;-73
2022/03/18 06:05:55;;;;;;;76.05;51.63;;;;;;;;;;5063932;28;20046;-73
2022/03/18 06:13:55;;;;;;;72.07;49.13;;;;;;;;;;5067648;28;20044;-73
2022/03/18 06:16:21;;;;;;;73.28;49.60;;;;;;;;;;5066974;28;20029;-73
2022/03/18 06:18:47;;;;;;;76.57;50.40;;;;;;;;;;5071228;28;20032;-73
2022/03/18 06:21:15;;;;;;;80.82;47.45;;;;;;;;;;5068681;28;20127;-73
2022/03/18 06:23:41;;;;;;;81.70;48.78;;;;;;;;;;5071002;28;20049;-74
2022/03/18 06:26:07;;;;;;;68.90;46.60;;;;;;;;;;5066550;28;20129;-73
2022/03/18 06:28:33;;;;;;;77.07;50.97;;;;;;;;;;5065745;28;20064;-73
2022/03/18 06:30:59;;;;;;;80.50;52.78;;;;;;;;;;5061843;28;20105;-73
2022/03/18 06:33:27;;;;;;;76.15;45.78;;;;;;;;;;5067128;28;20036;-73
2022/03/18 06:35:53;;;;;;;80.03;49.92;;;;;;;;;;5063341;28;20119;-73
2022/03/18 06:38:19;;;;;;;74.75;49.38;;;;;;;;;;5068687;28;20043;-73
2022/03/18 06:40:45;;;;;;;75.90;48.70;;;;;;;;;;5067298;28;20043;-73
2022/03/18 06:43:11;;;;;;;80.88;49.60;;;;;;;;;;5069977;28;20394;-73
2022/03/18 06:45:37;;;;;;;79.43;51.17;;;;;;;;;;5073279;28;20040;-73
2022/03/18 06:48:03;;;;;;;86.25;50.40;;;;;;;;;;5069776;28;20032;-73
2022/03/18 06:50:30;;;;;;;77.07;47.90;;;;;;;;;;5070497;28;20103;-73
2022/03/18 06:52:56;;;;;;;74.22;47.60;;;;;;;;;;5070087;28;20039;-73
2022/03/18 06:55:22;;;;;;;75.22;50.08;;;;;;;;;;5070942;28;20036;-73
2022/03/18 06:57:48;;;;;;;75.85;48.42;;;;;;;;;;5069362;28;20029;-73
2022/03/18 07:00:14;;;;;;;75.65;49.08;;;;;;;;;;5071124;28;20040;-72
2022/03/18 07:02:40;;;;;;;71.05;45.25;;;;;;;;;;5069613;28;20040;-73
2022/03/18 07:05:06;;;;;;;80.50;46.58;;;;;;;;;;5070700;28;20051;-73
2022/03/18 07:07:32;;;;;;;74.57;47.22;;;;;;;;;;5070365;28;20032;-72
2022/03/18 07:09:58;;;;;;;74.32;47.30;;;;;;;;;;5069681;28;20119;-73
2022/03/18 07:12:24;;;;;;;74.90;46.22;;;;;;;;;;5075722;28;20028;-73
2022/03/18 07:14:50;;;;;;;75.30;47.50;;;;;;;;;;5071987;28;20040;-73
2022/03/18 07:20:01;;;;;;;72.20;45.47;;;;;;;;;;5069643;28;20043;-72
2022/03/18 07:22:27;;;;;;;69.25;43.25;;;;;;;;;;5070043;28;20762;-72
2022/03/18 07:24:53;;;;;;;74.32;47.58;;;;;;;;;;5069298;28;20206;-72
2022/03/18 07:27:19;;;;;;;76.72;47.92;;;;;;;;;;5069703;28;20064;-71
2022/03/18 07:29:45;;;;;;;79.65;46.78;;;;;;;;;;5076296;28;20074;-72
2022/03/18 07:32:11;;;;;;;68.45;48.47;;;;;;;;;;5081389;28;20036;-71
2022/03/18 07:34:37;;;;;;;74.18;44.78;;;;;;;;;;5062362;28;20044;-72
2022/03/18 07:37:03;;;;;;;76.68;47.22;;;;;;;;;;5070234;28;20105;-72
2022/03/18 07:39:29;;;;;;;74.57;46.85;;;;;;;;;;5076820;28;20033;-72
2022/03/18 07:41:55;;;;;;;66.68;43.85;;;;;;;;;;5070667;28;20028;-72
2022/03/18 07:44:21;;;;;;;71.95;45.70;;;;;;;;;;5068667;28;20036;-72
2022/03/18 07:46:47;;;;;;;72.30;48.53;;;;;;;;;;5071287;28;20829;-72
2022/03/18 07:49:13;;;;;;;74.88;46.60;;;;;;;;;;5072509;28;20040;-72
2022/03/18 07:51:39;;;;;;;67.60;43.38;;;;;;;;;;5077743;28;20024;-71
2022/03/18 07:54:05;;;;;;;62.53;43.22;;;;;;;;;;5068970;28;20040;-72
2022/03/18 07:56:31;;;;;;;70.97;45.08;;;;;;;;;;5054620;28;20053;-71
2022/03/18 07:58:57;;;;;;;65.65;45.75;;;;;;;;;;5068461;28;20032;-72
2022/03/18 08:01:25;;;;;;;65.05;42.05;;;;;;;;;;5072567;28;20094;-71
2022/03/18 08:03:51;;;;;;;68.75;41.00;;;;;;;;;;5079140;28;20024;-71
2022/03/18 08:06:19;;;;;;;77.05;45.10;;;;;;;;;;5079375;28;20039;-72
2022/03/18 08:08:45;;;;;;;66.97;43.47;;;;;;;;;;5067936;28;20040;-72
2022/03/18 08:11:12;;;;;;;76.72;45.15;;;;;;;;;;5071380;28;20039;-72
2022/03/18 08:13:38;;;;;;;59.95;41.38;;;;;;;;;;5069770;28;20116;-72
2022/03/18 08:16:04;;;;;;;63.72;41.65;;;;;;;;;;5072309;28;20050;-72
2022/03/18 08:18:31;;;;;;;56.95;38.22;;;;;;;;;;5070339;28;20032;-72
2022/03/18 08:20:57;;;;;;;66.38;42.03;;;;;;;;;;5067356;28;20026;-72
2022/03/18 08:23:23;;;;;;;58.35;42.15;;;;;;;;;;5072443;28;20063;-72
2022/03/18 08:25:49;;;;;;;64.25;42.50;;;;;;;;;;5063831;28;20033;-72
2022/03/18 08:28:15;;;;;;;65.85;42.40;;;;;;;;;;5062295;28;20025;-72
2022/03/18 08:30:41;;;;;;;60.92;40.47;;;;;;;;;;5074934;28;20532;-72
2022/03/18 08:33:07;;;;;;;61.22;40.47;;;;;;;;;;5068574;28;20044;-72
2022/03/18 08:35:36;;;;;;;61.40;41.40;;;;;;;;;;5067847;28;20047;-72
2022/03/18 08:38:03;;;;;;;58.58;39.47;;;;;;;;;;5058827;28;20035;-72
2022/03/18 08:40:34;;;;;;;58.38;38.00;;;;;;;;;;5069462;28;20020;-73
2022/03/18 08:43:01;;;;;;;57.35;38.80;;;;;;;;;;5068371;28;20086;-72
2022/03/18 08:45:28;;;;;;;58.45;37.28;;;;;;;;;;5068846;28;20565;-72
2022/03/18 08:47:54;;;;;;;54.20;39.55;;;;;;;;;;5067744;28;20471;-72
2022/03/18 08:50:21;;;;;;;62.88;37.72;;;;;;;;;;5065831;28;20028;-72
2022/03/18 08:52:49;;;;;;;58.28;40.70;;;;;;;;;;5065124;28;20029;-72
2022/03/18 08:55:16;;;;;;;61.30;39.08;;;;;;;;;;5073639;28;20020;-72
2022/03/18 08:57:42;;;;;;;69.30;40.17;;;;;;;;;;5074741;28;20135;-72
2022/03/18 09:00:09;;;;;;;62.80;39.50;;;;;;;;;;5069225;28;20847;-72
2022/03/18 09:02:36;;;;;;;60.38;39.58;;;;;;;;;;5059683;28;20081;-72
2022/03/18 09:05:02;;;;;;;68.63;39.80;;;;;;;;;;5064659;28;20043;-72
2022/03/18 09:07:29;;;;;;;57.67;38.75;;;;;;;;;;5071219;28;20032;-72
2022/03/18 09:09:55;;;;;;;57.05;39.10;;;;;;;;;;5070013;28;20071;-72
2022/03/18 09:12:21;;;;;;;58.72;39.03;;;;;;;;;;5067284;28;20032;-72
2022/03/18 09:14:47;;;;;;;59.45;43.33;;;;;;;;;;5067616;28;20072;-72
2022/03/18 09:17:13;;;;;;;68.85;40.97;;;;;;;;;;5061423;28;20056;-72
2022/03/18 09:19:39;;;;;;;62.03;40.35;;;;;;;;;;5069199;28;20037;-72
2022/03/18 09:22:06;;;;;;;65.30;41.45;;;;;;;;;;5069460;28;20040;-72
2022/03/18 09:24:33;;;;;;;66.13;40.70;;;;;;;;;;5070157;28;20139;-72
2022/03/18 09:26:59;;;;;;;66.55;42.88;;;;;;;;;;5059317;28;20040;-72
2022/03/18 09:29:26;;;;;;;62.90;39.25;;;;;;;;;;5067588;28;20035;-72
2022/03/18 09:31:52;;;;;;;59.08;40.00;;;;;;;;;;5069941;28;20103;-73
2022/03/18 09:34:22;;;;;;;60.03;37.55;;;;;;;;;;5067377;28;20045;-72
2022/03/18 09:36:48;;;;;;;59.40;39.33;;;;;;;;;;5068332;28;20025;-73
2022/03/18 09:39:14;;;;;;;68.72;42.20;;;;;;;;;;5067410;28;20111;-72
2022/03/18 09:41:40;;;;;;;60.70;38.28;;;;;;;;;;5070195;28;20103;-72
2022/03/18 09:44:07;;;;;;;57.40;34.50;;;;;;;;;;5070411;28;20093;-72
2022/03/18 09:46:33;;;;;;;62.88;39.42;;;;;;;;;;5067724;28;20032;-72
2022/03/18 09:49:00;;;;;;;55.83;39.05;;;;;;;;;;5065932;28;20036;-72
2022/03/18 09:51:26;;;;;;;56.33;39.60;;;;;;;;;;5079068;28;20514;-72
2022/03/18 09:53:52;;;;;;;66.40;39.15;;;;;;;;;;5077773;28;20081;-72
2022/03/18 09:56:18;;;;;;;57.78;39.88;;;;;;;;;;5077659;28;20016;-73
2022/03/18 09:58:44;;;;;;;59.72;38.33;;;;;;;;;;5074164;28;20044;-72
2022/03/18 10:01:10;;;;;;;73.50;39.03;;;;;;;;;;5070874;28;20514;-72
2022/03/18 10:03:40;;;;;;;70.30;43.20;;;;;;;;;;5070469;28;20155;-72
2022/03/18 10:06:07;;;;;;;69.15;40.72;;;;;;;;;;5067177;28;20028;-72
2022/03/18 10:08:37;;;;;;;67.05;38.92;;;;;;;;;;5071409;28;20063;-72
2022/03/18 10:11:16;;;;;;;58.70;36.38;;;;;;;;;;5074050;28;20032;-72
2022/03/18 10:13:52;;;;;;;61.13;40.22;;;;;;;;;;5073943;28;20046;-72
2022/03/18 10:16:37;;;;;;;59.63;38.72;;;;;;;;;;5075388;28;20032;-72
2022/03/18 10:19:06;;;;;;;58.58;37.65;;;;;;;;;;5065326;28;20056;-72
2022/03/18 10:21:32;;;;;;;58.33;37.92;;;;;;;;;;5072746;28;20032;-72
2022/03/18 10:24:07;;;;;;;66.43;40.95;;;;;;;;;;5069968;28;20088;-72
2022/03/18 10:26:35;;;;;;;64.18;38.97;;;;;;;;;;5054962;28;20028;-72
2022/03/18 10:29:01;;;;;;;59.20;41.05;;;;;;;;;;5075473;28;20036;-72
2022/03/18 10:31:27;;;;;;;59.88;38.28;;;;;;;;;;5069687;28;20097;-72
2022/03/18 10:39:24;;;;;;;56.60;34.38;;;;;;;;;;5081831;28;20069;-73
2022/03/18 10:41:50;;;;;;;56.90;35.92;;;;;;;;;;5076761;28;20024;-72
2022/03/18 10:44:17;;;;;;;61.88;39.63;;;;;;;;;;5069875;28;20036;-73
2022/03/18 10:46:43;;;;;;;53.65;35.45;;;;;;;;;;5071137;28;20383;-72
2022/03/18 10:49:10;;;;;;;54.75;36.42;;;;;;;;;;5079111;28;20071;-72
2022/03/18 10:51:37;;;;;;;53.90;37.88;;;;;;;;;;5061511;28;20036;-72
2022/03/18 10:54:04;;;;;;;55.85;37.70;;;;;;;;;;5087503;28;20051;-72
2022/03/18 10:56:30;;;;;;;62.05;38.05;;;;;;;;;;5082285;28;20050;-72
2022/03/18 10:58:56;;;;;;;55.83;35.95;;;;;;;;;;5069655;28;20082;-73
2022/03/18 11:01:23;;;;;;;57.45;37.67;;;;;;;;;;5075950;28;20032;-72
2022/03/18 11:03:50;;;;;;;56.38;35.58;;;;;;;;;;5074004;28;20047;-72
2022/03/18 11:06:17;;;;;;;57.80;36.85;;;;;;;;;;5073817;28;20368;-71
2022/03/18 11:08:43;;;;;;;56.03;36.85;;;;;;;;;;5074062;28;20041;-72
2022/03/18 11:11:15;;;;;;;53.20;36.22;;;;;;;;;;5067868;28;20024;-72
2022/03/18 11:14:03;;;;;;;55.63;37.45;;;;;;;;;;5078648;28;20035;-72
2022/03/18 11:16:39;;;;;;;58.38;35.88;;;;;;;;;;5068559;28;20131;-72
2022/03/18 11:19:09;;;;;;;61.83;38.20;;;;;;;;;;5064849;28;20055;-72
2022/03/18 11:21:36;;;;;;;57.60;37.80;;;;;;;;;;5072345;28;20036;-72
2022/03/18 11:24:03;;;;;;;61.10;36.65;;;;;;;;;;5068794;28;20060;-72
2022/03/18 11:26:30;;;;;;;54.78;33.40;;;;;;;;;;5071287;28;20036;-71
2022/03/18 11:29:09;;;;;;;57.15;34.95;;;;;;;;;;5072282;28;20119;-72
2022/03/18 11:31:35;;;;;;;52.25;34.47;;;;;;;;;;5069424;28;20040;-71
2022/03/18 11:34:09;;;;;;;51.90;35.63;;;;;;;;;;5070293;28;20047;-72
2022/03/18 11:36:36;;;;;;;49.83;33.70;;;;;;;;;;5081390;28;20083;-72
2022/03/18 11:39:06;;;;;;;51.33;35.30;;;;;;;;;;5061318;28;20140;-71
2022/03/18 11:41:46;;;;;;;53.95;35.47;;;;;;;;;;5075542;28;20119;-72
2022/03/18 11:44:12;;;;;;;55.45;37.83;;;;;;;;;;5062734;28;20040;-72
2022/03/18 11:46:40;;;;;;;55.42;37.78;;;;;;;;;;5068993;28;20043;-72
2022/03/18 11:49:08;;;;;;;52.90;35.38;;;;;;;;;;5062540;28;20653;-72
2022/03/18 11:51:35;;;;;;;54.50;34.60;;;;;;;;;;5069117;28;20029;-72
2022/03/18 11:54:10;;;;;;;49.00;34.05;;;;;;;;;;5058436;28;20029;-71
2022/03/18 11:56:52;;;;;;;54.38;38.20;;;;;;;;;;5072162;28;20030;-71
2022/03/18 11:59:24;;;;;;;51.72;35.63;;;;;;;;;;5070900;28;20179;-72
2022/03/18 12:01:54;;;;;;;54.55;35.05;;;;;;;;;;5076762;28;20029;-71
2022/03/18 12:04:46;;;;;;;51.47;38.03;;;;;;;;;;5069949;28;20057;-71
2022/03/18 12:07:12;;;;;;;48.10;33.60;;;;;;;;;;5064528;28;20043;-71
2022/03/18 12:09:57;;;;;;;46.40;33.15;;;;;;;;;;5072085;28;20471;-72
2022/03/18 12:12:31;;;;;;;57.78;37.60;;;;;;;;;;5069263;28;20029;-71
2022/03/18 12:15:00;;;;;;;56.28;35.85;;;;;;;;;;5070551;28;20243;-71
2022/03/18 12:17:26;;;;;;;55.33;37.25;;;;;;;;;;5071124;28;20027;-71
2022/03/18 12:19:56;;;;;;;53.63;36.95;;;;;;;;;;5055134;28;20032;-71
2022/03/18 12:22:22;;;;;;;52.90;35.38;;;;;;;;;;5067612;28;20056;-72
2022/03/18 12:24:50;;;;;;;54.08;34.47;;;;;;;;;;5067576;28;20098;-71
2022/03/18 12:27:17;;;;;;;52.08;37.30;;;;;;;;;;5068634;28;20024;-71
2022/03/18 12:29:43;;;;;;;48.30;35.72;;;;;;;;;;5067924;28;20535;-71
2022/03/18 12:32:09;;;;;;;52.25;35.42;;;;;;;;;;5067149;28;20128;-72
2022/03/18 12:34:47;;;;;;;53.28;33.50;;;;;;;;;;5069082;28;20032;-72
2022/03/18 12:37:17;;;;;;;59.05;37.05;;;;;;;;;;5066199;28;20028;-72
2022/03/18 12:39:43;;;;;;;52.35;36.53;;;;;;;;;;5061370;28;20024;-71
2022/03/18 12:42:11;;;;;;;50.67;36.33;;;;;;;;;;5068742;28;20063;-71
2022/03/18 12:44:38;;;;;;;52.85;34.45;;;;;;;;;;5068344;28;20038;-71
2022/03/18 12:47:05;;;;;;;55.83;36.33;;;;;;;;;;5068665;28;20047;-72
2022/03/18 12:49:38;;;;;;;50.63;35.83;;;;;;;;;;5067852;28;20097;-72
2022/03/18 12:52:08;;;;;;;51.25;34.75;;;;;;;;;;5069289;28;20059;-72
2022/03/18 12:54:34;;;;;;;59.03;38.75;;;;;;;;;;5067856;28;20102;-72
2022/03/18 12:57:02;;;;;;;53.28;36.33;;;;;;;;;;5076382;28;20055;-72
2022/03/18 12:59:28;;;;;;;49.85;35.33;;;;;;;;;;5071985;28;20484;-72
2022/03/18 13:01:55;;;;;;;49.10;33.83;;;;;;;;;;5065269;28;20036;-72
2022/03/18 13:04:21;;;;;;;55.85;33.78;;;;;;;;;;5068894;28;20063;-72
2022/03/18 13:06:51;;;;;;;56.00;32.33;;;;;;;;;;5061009;28;20052;-71
2022/03/18 13:09:18;;;;;;;46.95;33.28;;;;;;;;;;5055302;28;20051;-72
2022/03/18 13:11:44;;;;;;;50.50;32.75;;;;;;;;;;5068750;28;20033;-72
2022/03/18 13:14:10;;;;;;;49.22;38.40;;;;;;;;;;5072983;28;20042;-72
2022/03/18 13:16:44;;;;;;;52.08;35.30;;;;;;;;;;5081729;28;20043;-72
2022/03/18 13:19:10;;;;;;;50.10;36.42;;;;;;;;;;5069061;28;20039;-71
2022/03/18 13:21:40;;;;;;;53.00;37.17;;;;;;;;;;5077654;28;20047;-71
2022/03/18 13:24:07;;;;;;;52.58;37.05;;;;;;;;;;5080118;28;20721;-72
2022/03/18 13:26:33;;;;;;;49.33;32.80;;;;;;;;;;5073739;28;20036;-72
2022/03/18 13:28:59;;;;;;;50.90;33.97;;;;;;;;;;5071339;28;20090;-71
2022/03/18 13:34:10;;;;;;;56.15;34.83;;;;;;;;;;5073589;28;20042;-72
2022/03/18 13:36:37;;;;;;;58.67;37.00;;;;;;;;;;5082661;28;20374;-72
2022/03/18 13:39:05;;;;;;;48.72;33.85;;;;;;;;;;5081730;28;20028;-72
2022/03/18 13:41:58;;;;;;;53.42;35.88;;;;;;;;;;5070923;28;20717;-72
2022/03/18 13:44:24;;;;;;;53.33;38.00;;;;;;;;;;5066782;28;20487;-72
2022/03/18 13:47:07;;;;;;;52.58;33.88;;;;;;;;;;5078753;28;20059;-71
2022/03/18 13:49:34;;;;;;;50.35;33.88;;;;;;;;;;5068793;28;20040;-72
2022/03/18 13:52:04;;;;;;;50.97;35.17;;;;;;;;;;5078449;28;20117;-72
2022/03/18 13:54:41;;;;;;;52.50;36.85;;;;;;;;;;5079830;28;20543;-71
2022/03/18 13:57:07;;;;;;;58.25;36.47;;;;;;;;;;5065957;28;20141;-71
2022/03/18 13:59:33;;;;;;;55.15;35.85;;;;;;;;;;5074557;28;20037;-72
2022/03/18 14:02:09;;;;;;;51.92;35.05;;;;;;;;;;5070012;28;20032;-71
2022/03/18 14:04:44;;;;;;;49.55;34.47;;;;;;;;;;5070812;28;20032;-71
2022/03/18 14:07:11;;;;;;;53.05;35.55;;;;;;;;;;5078470;28;20126;-72
2022/03/18 14:09:38;;;;;;;57.42;36.03;;;;;;;;;;5073960;28;20962;-72
2022/03/18 14:12:10;;;;;;;54.63;36.40;;;;;;;;;;5070569;28;20170;-72
2022/03/18 14:14:37;;;;;;;53.15;35.58;;;;;;;;;;5071532;28;20040;-72
2022/03/18 14:17:14;;;;;;;52.28;35.28;;;;;;;;;;5079045;28;20024;-72
2022/03/18 14:19:46;;;;;;;54.38;36.83;;;;;;;;;;5078812;28;20032;-72
2022/03/18 14:22:30;;;;;;;51.88;33.40;;;;;;;;;;5061682;28;20033;-72
2022/03/18 14:24:57;;;;;;;59.90;39.00;;;;;;;;;;5065473;28;20937;-71
2022/03/18 14:27:23;;;;;;;58.47;37.80;;;;;;;;;;5078456;28;20391;-71
2022/03/18 14:29:49;;;;;;;53.38;35.55;;;;;;;;;;5079865;28;20040;-71
2022/03/18 14:32:15;;;;;;;52.05;34.08;;;;;;;;;;5068396;28;20035;-72
2022/03/18 14:34:42;;;;;;;54.97;35.60;;;;;;;;;;5068935;28;20111;-71
2022/03/18 14:37:08;;;;;;;52.25;34.92;;;;;;;;;;5070454;28;20028;-72
2022/03/18 14:39:34;;;;;;;56.95;34.55;;;;;;;;;;5068255;28;20078;-72
2022/03/18 14:42:00;;;;;;;50.80;34.95;;;;;;;;;;5077338;28;20032;-72
2022/03/18 14:44:26;;;;;;;54.90;37.30;;;;;;;;;;5069777;28;20120;-72